Time;durP1;ratioP1;P1;durP2;ratioP2;P2;SDS_P1;SDS_P2;PMS_P1;PMS_P2;Temp;Humidity;BMP_temperature;BMP_pressure;BME280_temperature;BME280_humidity;BME280_pressure;Samples;Min_cycle;Max_cycle;Signal;HPM_P1;HPM_P2
2023/06/11 00:00:20;;;;;;;4.97;2.92;;;22.90;82.80;;;;;;5093271;28;20102;-83
2023/06/11 00:02:46;;;;;;;3.30;3.00;;;22.80;82.90;;;;;;5093490;28;20376;-83
2023/06/11 00:05:12;;;;;;;3.70;2.90;;;22.80;83.30;;;;;;5093583;28;20032;-83
2023/06/11 00:07:38;;;;;;;4.88;3.25;;;22.70;83.50;;;;;;5094030;28;20040;-84
2023/06/11 00:10:07;;;;;;;3.50;3.10;;;22.70;84.00;;;;;;5092457;28;20530;-83
2023/06/11 00:12:33;;;;;;;3.30;3.00;;;22.60;84.60;;;;;;5093062;28;20093;-83
2023/06/11 00:15:02;;;;;;;2.72;2.53;;;22.60;84.10;;;;;;5092588;28;20111;-83
2023/06/11 00:17:28;;;;;;;3.58;3.08;;;22.60;84.60;;;;;;5093239;28;20028;-83
2023/06/11 00:19:54;;;;;;;3.40;2.90;;;22.60;84.80;;;;;;5093912;28;20017;-83
2023/06/11 00:22:19;;;;;;;3.80;3.20;;;22.40;85.30;;;;;;5093733;28;20079;-83
2023/06/11 00:24:46;;;;;;;6.25;3.13;;;22.50;85.70;;;;;;5093996;28;20377;-83
2023/06/11 00:27:11;;;;;;;4.25;3.50;;;22.30;86.20;;;;;;5094535;28;20036;-83
2023/06/11 00:29:37;;;;;;;3.90;3.00;;;22.30;86.50;;;;;;5097917;28;20035;-83
2023/06/11 00:32:03;;;;;;;4.25;3.17;;;22.30;86.90;;;;;;5097521;28;20488;-83
2023/06/11 00:34:28;;;;;;;4.82;3.20;;;22.30;87.00;;;;;;5097154;28;20032;-83
2023/06/11 00:36:54;;;;;;;5.18;3.60;;;22.30;87.10;;;;;;5096866;28;20020;-83
2023/06/11 00:39:20;;;;;;;4.18;3.17;;;22.20;88.00;;;;;;5096274;28;20054;-84
2023/06/11 00:41:48;;;;;;;3.75;3.40;;;22.20;87.80;;;;;;5096662;28;20472;-83
2023/06/11 00:44:21;;;;;;;5.75;3.42;;;22.20;88.10;;;;;;5096256;28;20016;-83
2023/06/11 00:46:48;;;;;;;4.20;3.28;;;22.20;88.40;;;;;;5096617;28;20047;-83
2023/06/11 00:49:14;;;;;;;3.55;3.20;;;22.20;88.60;;;;;;5096876;28;20105;-83
2023/06/11 00:51:41;;;;;;;4.80;3.20;;;22.20;88.80;;;;;;5097420;28;20032;-84
2023/06/11 00:54:12;;;;;;;4.75;3.38;;;22.10;89.00;;;;;;5096155;28;20024;-83
2023/06/11 00:56:41;;;;;;;4.30;3.80;;;22.10;89.30;;;;;;5097949;28;20422;-84
2023/06/11 00:59:07;;;;;;;3.88;3.47;;;22.10;89.80;;;;;;5095816;28;20086;-84
2023/06/11 01:01:41;;;;;;;3.78;3.42;;;22.00;89.40;;;;;;5096355;28;20052;-84
2023/06/11 01:04:17;;;;;;;4.18;3.20;;;22.00;89.30;;;;;;5097662;28;20016;-83
2023/06/11 01:06:46;;;;;;;3.70;3.40;;;22.00;89.60;;;;;;5102688;28;20103;-83
2023/06/11 01:09:12;;;;;;;6.10;4.07;;;22.00;90.10;;;;;;5096482;28;20096;-84
2023/06/11 01:11:38;;;;;;;4.03;3.58;;;22.00;90.30;;;;;;5098061;28;20039;-84
2023/06/11 01:14:05;;;;;;;6.03;3.40;;;22.00;90.50;;;;;;5097974;28;20020;-84
2023/06/11 01:16:46;;;;;;;3.45;3.15;;;21.90;90.60;;;;;;5099167;28;20078;-84
2023/06/11 01:19:39;;;;;;;4.30;3.45;;;21.90;90.70;;;;;;5097704;28;20032;-83
2023/06/11 01:22:13;;;;;;;5.07;3.60;;;21.80;91.00;;;;;;5097730;28;20036;-83
2023/06/11 01:25:13;;;;;;;5.75;3.88;;;21.70;91.50;;;;;;5095531;28;20034;-84
2023/06/11 01:28:03;;;;;;;6.50;4.15;;;21.70;91.60;;;;;;5096086;28;20070;-84
2023/06/11 01:30:32;;;;;;;4.32;3.33;;;21.60;91.50;;;;;;5097668;28;20035;-83
2023/06/11 01:33:00;;;;;;;4.60;3.25;;;21.60;91.50;;;;;;5099641;28;20028;-83
2023/06/11 01:35:27;;;;;;;4.43;3.58;;;21.60;91.90;;;;;;5099878;28;20091;-83
2023/06/11 01:37:55;;;;;;;5.30;4.03;;;21.60;91.90;;;;;;5099308;28;20032;-83
2023/06/11 01:40:25;;;;;;;5.88;4.03;;;21.60;92.30;;;;;;5099729;28;20465;-83
2023/06/11 01:42:52;;;;;;;3.75;3.30;;;21.60;92.10;;;;;;5098648;28;20028;-83
2023/06/11 01:45:18;;;;;;;4.80;3.50;;;21.50;92.20;;;;;;5096935;28;20043;-84
2023/06/11 01:47:48;;;;;;;4.20;3.70;;;21.50;92.40;;;;;;5095201;28;20054;-84
2023/06/11 01:50:15;;;;;;;5.60;3.90;;;21.50;92.60;;;;;;5095019;28;20059;-83
2023/06/11 01:52:41;;;;;;;4.57;3.55;;;21.40;92.70;;;;;;5097329;28;20028;-84
2023/06/11 01:55:07;;;;;;;4.05;3.65;;;21.30;93.00;;;;;;5096393;28;20027;-83
2023/06/11 01:57:33;;;;;;;3.92;3.53;;;21.30;93.20;;;;;;5096957;28;20043;-84
2023/06/11 01:59:59;;;;;;;4.47;3.50;;;21.30;93.30;;;;;;5095231;28;20024;-84
2023/06/11 02:02:27;;;;;;;4.75;3.58;;;21.30;93.40;;;;;;5095569;28;20020;-84
2023/06/11 02:04:53;;;;;;;5.38;3.70;;;21.20;93.60;;;;;;5094922;28;20028;-84
2023/06/11 02:07:18;;;;;;;5.32;3.90;;;21.20;93.90;;;;;;5094378;28;20047;-83
2023/06/11 02:09:44;;;;;;;4.47;3.70;;;21.20;93.90;;;;;;5095854;28;20020;-84
2023/06/11 02:12:10;;;;;;;5.05;4.10;;;21.20;94.10;;;;;;5099450;28;20027;-84
2023/06/11 02:14:35;;;;;;;5.75;3.85;;;21.20;94.00;;;;;;5100716;28;20028;-85
2023/06/11 02:17:01;;;;;;;4.28;3.67;;;21.20;94.20;;;;;;5100081;28;20034;-83
2023/06/11 02:19:27;;;;;;;4.13;3.63;;;21.10;94.30;;;;;;5098300;28;20097;-84
2023/06/11 02:21:53;;;;;;;3.88;3.20;;;21.10;94.40;;;;;;5099477;28;20036;-84
2023/06/11 02:24:18;;;;;;;4.10;3.70;;;21.10;94.30;;;;;;5099141;28;20024;-84
2023/06/11 02:26:44;;;;;;;4.63;4.10;;;21.10;94.20;;;;;;5100179;28;20024;-84
2023/06/11 02:29:10;;;;;;;5.10;3.80;;;21.10;94.30;;;;;;5099896;28;20041;-83
2023/06/11 02:31:35;;;;;;;5.03;3.95;;;20.90;94.80;;;;;;5099785;28;20107;-84
2023/06/11 02:34:01;;;;;;;6.05;4.25;;;20.90;95.00;;;;;;5100371;28;20031;-84
2023/06/11 02:36:27;;;;;;;4.43;3.90;;;20.90;95.20;;;;;;5098681;28;20059;-83
2023/06/11 02:38:52;;;;;;;5.03;3.58;;;20.90;95.10;;;;;;5097169;28;20427;-84
2023/06/11 02:41:18;;;;;;;4.82;4.10;;;20.90;95.20;;;;;;5097540;28;20131;-84
2023/06/11 02:43:43;;;;;;;5.85;4.38;;;20.90;95.30;;;;;;5095593;28;20073;-83
2023/06/11 02:46:09;;;;;;;4.20;3.53;;;20.90;95.30;;;;;;5093697;28;20031;-84
2023/06/11 02:48:34;;;;;;;7.80;4.22;;;20.90;95.50;;;;;;5095425;28;20036;-83
2023/06/11 02:51:00;;;;;;;4.57;3.70;;;20.80;95.50;;;;;;5096024;28;20024;-83
2023/06/11 02:53:26;;;;;;;7.53;4.20;;;20.90;95.60;;;;;;5095623;28;20078;-84
2023/06/11 02:55:51;;;;;;;4.45;3.72;;;20.80;95.70;;;;;;5096213;28;20114;-84
2023/06/11 02:58:17;;;;;;;4.68;3.90;;;20.80;95.80;;;;;;5094423;28;20031;-84
2023/06/11 03:00:42;;;;;;;6.85;4.20;;;20.80;96.20;;;;;;5095614;28;20102;-84
2023/06/11 03:03:08;;;;;;;4.82;4.10;;;20.70;96.20;;;;;;5093345;28;20030;-83
2023/06/11 03:05:33;;;;;;;6.05;4.30;;;20.70;96.50;;;;;;5094463;28;20024;-84
2023/06/11 03:07:59;;;;;;;4.63;4.13;;;20.60;96.60;;;;;;5094058;28;20392;-84
2023/06/11 03:10:27;;;;;;;5.93;4.38;;;20.60;96.80;;;;;;5093600;28;20203;-84
2023/06/11 03:12:56;;;;;;;5.57;4.25;;;20.60;96.80;;;;;;5093870;28;20024;-84
2023/06/11 03:15:21;;;;;;;4.25;3.63;;;20.50;97.10;;;;;;5093227;28;20028;-84
2023/06/11 03:17:47;;;;;;;4.30;3.70;;;20.50;97.20;;;;;;5094691;28;20461;-83
2023/06/11 03:20:13;;;;;;;4.75;3.90;;;20.40;97.50;;;;;;5094114;28;20048;-84
2023/06/11 03:22:39;;;;;;;6.13;4.65;;;20.40;97.80;;;;;;5094742;28;20102;-84
2023/06/11 03:25:05;;;;;;;6.88;4.22;;;20.40;97.80;;;;;;5094564;28;20461;-84
2023/06/11 03:27:30;;;;;;;6.40;4.75;;;20.40;98.10;;;;;;5092871;28;20039;-84
2023/06/11 03:29:56;;;;;;;6.18;4.28;;;20.40;98.10;;;;;;5094576;28;20020;-84
2023/06/11 03:32:22;;;;;;;6.03;3.63;;;20.40;98.20;;;;;;5093808;28;20024;-84
2023/06/11 03:34:51;;;;;;;5.82;4.57;;;20.30;98.30;;;;;;5093549;28;20517;-84
2023/06/11 03:37:17;;;;;;;6.35;3.80;;;20.30;98.50;;;;;;5093824;28;20110;-83
2023/06/11 03:39:43;;;;;;;4.95;3.88;;;20.20;98.80;;;;;;5095680;28;20063;-83
2023/06/11 03:42:09;;;;;;;6.15;4.22;;;20.20;99.00;;;;;;5095901;28;20047;-83
2023/06/11 03:44:34;;;;;;;4.60;4.07;;;20.20;99.30;;;;;;5096616;28;20073;-84
2023/06/11 03:47:00;;;;;;;5.38;4.00;;;20.10;99.50;;;;;;5097513;28;20089;-82
2023/06/11 03:49:25;;;;;;;4.88;3.60;;;20.10;99.50;;;;;;5104812;28;20084;-82
2023/06/11 03:51:51;;;;;;;4.43;3.90;;;20.10;99.80;;;;;;5105401;28;20028;-82
2023/06/11 03:54:16;;;;;;;5.65;4.20;;;20.10;99.70;;;;;;5097343;28;20020;-82
2023/06/11 03:56:42;;;;;;;5.47;4.00;;;20.10;99.80;;;;;;5094480;28;20025;-82
2023/06/11 03:59:08;;;;;;;5.75;3.90;;;20.10;99.90;;;;;;5093011;28;20123;-82
2023/06/11 04:01:33;;;;;;;4.93;3.75;;;20.10;99.90;;;;;;5093073;28;20024;-82
2023/06/11 04:03:59;;;;;;;4.75;4.00;;;20.20;99.90;;;;;;5094140;28;20070;-82
2023/06/11 04:06:25;;;;;;;4.95;4.10;;;20.10;99.90;;;;;;5092508;28;20031;-82
2023/06/11 04:08:50;;;;;;;5.45;4.07;;;20.00;99.90;;;;;;5094091;28;20036;-82
2023/06/11 04:11:16;;;;;;;5.88;4.22;;;20.10;99.90;;;;;;5094009;28;20075;-82
2023/06/11 04:13:42;;;;;;;4.85;4.20;;;20.00;99.90;;;;;;5094602;28;20024;-82
2023/06/11 04:16:07;;;;;;;5.00;4.10;;;20.00;99.90;;;;;;5093312;28;20031;-82
2023/06/11 04:18:33;;;;;;;5.82;4.53;;;20.00;99.90;;;;;;5094044;28;20024;-81
2023/06/11 04:20:58;;;;;;;4.53;4.03;;;20.10;99.90;;;;;;5093776;28;20028;-82
2023/06/11 04:23:24;;;;;;;5.63;4.07;;;20.10;99.90;;;;;;5093371;28;20381;-82
2023/06/11 04:25:50;;;;;;;6.13;3.97;;;20.10;99.90;;;;;;5094293;28;20025;-82
2023/06/11 04:28:15;;;;;;;5.22;4.30;;;20.00;99.90;;;;;;5093582;28;20047;-81
2023/06/11 04:30:41;;;;;;;4.75;4.18;;;20.10;99.90;;;;;;5094356;28;20028;-82
2023/06/11 04:33:07;;;;;;;5.75;3.83;;;20.10;99.90;;;;;;5093023;28;20024;-82
2023/06/11 04:35:34;;;;;;;6.85;4.38;;;20.10;99.90;;;;;;5093756;28;20027;-82
2023/06/11 04:38:02;;;;;;;5.45;3.95;;;20.10;99.90;;;;;;5093888;28;20028;-82
2023/06/11 04:40:28;;;;;;;5.93;3.95;;;20.10;99.90;;;;;;5106025;28;20027;-81
2023/06/11 04:42:54;;;;;;;6.47;4.35;;;20.10;99.90;;;;;;5112035;28;20091;-82
2023/06/11 04:45:20;;;;;;;4.75;4.03;;;20.10;99.90;;;;;;5111804;28;20076;-82
2023/06/11 04:47:46;;;;;;;5.38;4.30;;;20.10;99.90;;;;;;5113593;28;20032;-81
2023/06/11 04:50:12;;;;;;;4.95;4.00;;;20.10;99.90;;;;;;5120301;28;20041;-80
2023/06/11 04:52:38;;;;;;;6.10;4.00;;;20.10;99.90;;;;;;5124327;28;20035;-81
2023/06/11 04:55:05;;;;;;;5.80;3.95;;;20.20;99.90;;;;;;5125743;28;20031;-81
2023/06/11 04:57:34;;;;;;;4.20;3.65;;;20.20;99.90;;;;;;5116446;28;20209;-82
2023/06/11 05:00:01;;;;;;;4.97;4.00;;;20.20;99.90;;;;;;5128324;28;20031;-82
2023/06/11 05:02:27;;;;;;;5.25;4.15;;;20.20;99.90;;;;;;5124219;28;20144;-81
2023/06/11 05:04:57;;;;;;;8.85;4.07;;;20.20;99.90;;;;;;5123943;28;20027;-82
2023/06/11 05:07:23;;;;;;;4.45;3.88;;;20.30;99.90;;;;;;5116065;28;20081;-82
2023/06/11 05:09:48;;;;;;;5.03;4.05;;;20.30;99.90;;;;;;5119790;28;20430;-80
2023/06/11 05:12:14;;;;;;;5.60;4.35;;;20.30;99.90;;;;;;5126410;28;20040;-82
2023/06/11 05:14:40;;;;;;;4.95;3.88;;;20.40;99.90;;;;;;5115690;27;20060;-82
2023/06/11 05:17:06;;;;;;;8.63;4.25;;;20.40;99.90;;;;;;5130064;27;20064;-82
2023/06/11 05:19:31;;;;;;;9.00;4.90;;;20.50;99.90;;;;;;5119790;27;20250;-82
2023/06/11 05:21:57;;;;;;;6.65;4.13;;;20.50;99.90;;;;;;5133450;27;20486;-82
2023/06/11 05:24:28;;;;;;;5.78;3.83;;;20.50;99.90;;;;;;5116006;27;20019;-82
2023/06/11 05:26:55;;;;;;;6.35;3.80;;;20.60;99.90;;;;;;5127261;27;20051;-82
2023/06/11 05:29:21;;;;;;;5.60;4.35;;;20.60;99.90;;;;;;5127396;27;20055;-82
2023/06/11 05:31:47;;;;;;;4.68;4.00;;;20.60;99.90;;;;;;5136873;27;20030;-82
2023/06/11 05:34:13;;;;;;;6.72;4.35;;;20.70;99.90;;;;;;5126904;27;20020;-77
2023/06/11 05:36:39;;;;;;;6.13;4.28;;;20.70;99.90;;;;;;5124525;27;20453;-82
2023/06/11 05:39:04;;;;;;;4.97;3.92;;;20.70;99.90;;;;;;5122616;27;20388;-82
2023/06/11 05:41:30;;;;;;;5.03;4.35;;;20.70;99.90;;;;;;5132275;27;20044;-83
2023/06/11 05:43:55;;;;;;;5.43;4.40;;;20.80;99.90;;;;;;5136447;27;20019;-82
2023/06/11 05:46:24;;;;;;;5.68;3.78;;;20.80;99.90;;;;;;5128371;27;20028;-82
2023/06/11 05:48:49;;;;;;;6.82;3.92;;;20.80;99.90;;;;;;5126523;27;20476;-83
2023/06/11 05:51:15;;;;;;;5.20;4.05;;;20.90;99.90;;;;;;5120231;27;20042;-82
2023/06/11 05:53:40;;;;;;;6.43;4.22;;;20.90;99.90;;;;;;5132671;27;20404;-82
2023/06/11 05:56:06;;;;;;;5.28;4.20;;;20.90;99.90;;;;;;5116508;28;20077;-82
2023/06/11 05:58:32;;;;;;;5.05;4.00;;;20.90;99.90;;;;;;5122314;27;20050;-82
2023/06/11 06:01:02;;;;;;;4.82;3.65;;;20.90;99.90;;;;;;5119680;27;20461;-82
2023/06/11 06:03:32;;;;;;;6.32;4.25;;;21.00;99.90;;;;;;5131117;27;20065;-84
2023/06/11 06:06:01;;;;;;;7.63;4.20;;;21.00;99.90;;;;;;5117888;27;20027;-83
2023/06/11 06:08:27;;;;;;;5.90;3.80;;;21.10;99.90;;;;;;5132895;27;20498;-82
2023/06/11 06:10:53;;;;;;;4.35;3.83;;;21.10;99.90;;;;;;5126517;27;20034;-82
2023/06/11 06:13:19;;;;;;;5.53;4.00;;;21.20;99.90;;;;;;5119249;27;20385;-82
2023/06/11 06:15:45;;;;;;;5.43;3.58;;;21.20;99.90;;;;;;5129456;27;20023;-81
2023/06/11 06:18:10;;;;;;;6.60;4.13;;;21.30;99.90;;;;;;5119674;27;20110;-82
2023/06/11 06:20:36;;;;;;;6.05;3.67;;;21.30;99.90;;;;;;5124856;27;20034;-81
2023/06/11 06:23:01;;;;;;;7.15;4.18;;;21.30;99.90;;;;;;5128532;27;20102;-82
2023/06/11 06:25:27;;;;;;;5.03;3.97;;;21.40;99.90;;;;;;5117680;27;20035;-82
2023/06/11 06:27:53;;;;;;;5.88;3.88;;;21.40;99.90;;;;;;5131237;27;20055;-82
2023/06/11 06:30:18;;;;;;;6.93;4.03;;;21.40;99.90;;;;;;5120926;27;20456;-82
2023/06/11 06:32:44;;;;;;;6.53;3.92;;;21.40;99.90;;;;;;5124626;27;20020;-82
2023/06/11 06:35:11;;;;;;;5.50;3.60;;;21.50;99.90;;;;;;5115036;28;20024;-82
2023/06/11 06:37:36;;;;;;;5.63;4.20;;;21.50;99.90;;;;;;5131366;27;20055;-80
2023/06/11 06:40:03;;;;;;;4.63;4.00;;;21.60;99.90;;;;;;5112877;27;20046;-82
2023/06/11 06:42:29;;;;;;;5.07;3.90;;;21.50;99.90;;;;;;5125607;27;20587;-82
2023/06/11 06:44:54;;;;;;;4.60;4.15;;;21.60;99.90;;;;;;5126603;27;20031;-82
2023/06/11 06:47:20;;;;;;;6.55;4.20;;;21.60;99.90;;;;;;5118796;27;20367;-82
2023/06/11 06:49:45;;;;;;;6.30;4.53;;;21.70;99.90;;;;;;5131227;27;20027;-82
2023/06/11 06:52:11;;;;;;;8.13;4.10;;;21.70;99.90;;;;;;5119567;27;20024;-82
2023/06/11 06:54:38;;;;;;;5.30;3.90;;;21.70;99.90;;;;;;5125539;27;20026;-82
2023/06/11 06:57:05;;;;;;;7.00;4.25;;;21.80;99.90;;;;;;5127744;27;20054;-82
2023/06/11 06:59:30;;;;;;;5.82;3.60;;;21.80;99.90;;;;;;5117130;27;20028;-82
2023/06/11 07:01:56;;;;;;;6.95;3.70;;;21.90;99.90;;;;;;5130688;27;20022;-82
2023/06/11 07:04:22;;;;;;;4.78;3.72;;;21.90;99.90;;;;;;5120111;27;20046;-81
2023/06/11 07:06:47;;;;;;;6.90;4.40;;;21.90;99.90;;;;;;5123433;27;20024;-83
2023/06/11 07:09:13;;;;;;;5.68;3.67;;;21.90;99.90;;;;;;5120201;27;20028;-82
2023/06/11 07:11:38;;;;;;;4.85;4.15;;;21.90;99.90;;;;;;5130280;27;20080;-82
2023/06/11 07:14:04;;;;;;;4.43;3.92;;;22.00;99.90;;;;;;5118188;27;20023;-84
2023/06/11 07:16:30;;;;;;;5.22;4.00;;;22.10;99.90;;;;;;5125151;27;20487;-82
2023/06/11 07:18:55;;;;;;;5.40;4.45;;;22.10;99.90;;;;;;5125229;27;20035;-82
2023/06/11 07:21:23;;;;;;;4.50;3.78;;;22.10;99.90;;;;;;5118994;27;20059;-82
2023/06/11 07:23:48;;;;;;;4.18;3.78;;;22.20;99.90;;;;;;5131469;27;20023;-83
2023/06/11 07:26:15;;;;;;;5.03;3.60;;;22.20;99.60;;;;;;5123912;27;20024;-82
2023/06/11 07:28:41;;;;;;;5.70;3.97;;;22.30;99.60;;;;;;5121458;27;20034;-81
2023/06/11 07:31:07;;;;;;;4.43;3.75;;;22.30;99.20;;;;;;5120808;27;20037;-81
2023/06/11 07:33:33;;;;;;;4.63;3.58;;;22.40;99.10;;;;;;5129964;27;20107;-80
2023/06/11 07:35:59;;;;;;;4.45;3.88;;;22.40;98.90;;;;;;5111824;28;20063;-82
2023/06/11 07:38:25;;;;;;;4.60;3.95;;;22.50;98.80;;;;;;5117373;27;20027;-82
2023/06/11 07:40:50;;;;;;;4.95;3.53;;;22.50;98.60;;;;;;5113860;28;20435;-81
2023/06/11 07:43:16;;;;;;;4.07;3.50;;;22.60;98.40;;;;;;5127677;27;20033;-83
2023/06/11 07:45:43;;;;;;;4.00;3.60;;;22.60;98.20;;;;;;5115703;27;20028;-82
2023/06/11 07:48:09;;;;;;;4.47;3.70;;;22.70;98.30;;;;;;5128389;27;20105;-83
2023/06/11 07:50:35;;;;;;;4.75;3.85;;;22.70;98.10;;;;;;5122397;28;20051;-82
2023/06/11 07:53:01;;;;;;;4.80;3.90;;;22.80;98.30;;;;;;5122356;27;20067;-82
2023/06/11 07:55:26;;;;;;;4.18;3.67;;;22.80;98.00;;;;;;5128643;27;20033;-82
2023/06/11 07:57:52;;;;;;;5.40;3.47;;;22.80;98.10;;;;;;5116321;27;20027;-83
2023/06/11 08:00:18;;;;;;;4.15;3.70;;;22.90;97.90;;;;;;5126743;28;20024;-83
2023/06/11 08:02:46;;;;;;;5.38;4.20;;;22.90;97.50;;;;;;5123534;28;20027;-82
2023/06/11 08:05:17;;;;;;;4.68;3.55;;;22.90;97.30;;;;;;5119255;28;20023;-82
2023/06/11 08:07:46;;;;;;;3.95;3.55;;;23.00;97.40;;;;;;5130862;28;20031;-83
2023/06/11 08:10:12;;;;;;;3.45;3.15;;;23.00;97.40;;;;;;5122488;28;20038;-83
2023/06/11 08:12:38;;;;;;;4.53;3.67;;;23.00;97.20;;;;;;5123303;28;20031;-83
2023/06/11 08:15:04;;;;;;;5.78;3.45;;;23.10;97.20;;;;;;5125676;28;20509;-83
2023/06/11 08:17:29;;;;;;;4.10;3.70;;;23.20;97.20;;;;;;5117531;28;20051;-83
2023/06/11 08:19:55;;;;;;;4.75;4.03;;;23.20;97.00;;;;;;5133976;28;20019;-83
2023/06/11 08:22:20;;;;;;;5.38;3.90;;;23.30;96.80;;;;;;5127082;28;20483;-80
2023/06/11 08:24:46;;;;;;;5.55;3.50;;;23.40;96.20;;;;;;5123289;28;20063;-82
2023/06/11 08:27:12;;;;;;;4.95;3.42;;;23.40;95.80;;;;;;5119116;28;20076;-83
2023/06/11 08:29:38;;;;;;;4.32;3.90;;;23.40;95.70;;;;;;5128926;28;20034;-84
2023/06/11 08:32:04;;;;;;;4.10;3.45;;;23.50;95.60;;;;;;5117998;28;20040;-84
2023/06/11 08:34:30;;;;;;;4.75;3.75;;;23.50;95.40;;;;;;5130378;28;20050;-83
2023/06/11 08:36:57;;;;;;;4.30;3.88;;;23.50;94.80;;;;;;5121577;28;20485;-83
2023/06/11 08:39:22;;;;;;;4.95;3.85;;;23.50;95.30;;;;;;5108023;28;20059;-82
2023/06/11 08:41:48;;;;;;;6.88;3.55;;;23.60;95.40;;;;;;5132263;28;20113;-83
2023/06/11 08:44:14;;;;;;;3.85;3.38;;;23.60;95.30;;;;;;5127309;28;20023;-83
2023/06/11 08:46:44;;;;;;;7.70;3.65;;;23.70;94.90;;;;;;5121842;28;20027;-83
2023/06/11 08:49:20;;;;;;;4.28;3.10;;;23.70;94.70;;;;;;5123810;27;20028;-83
2023/06/11 08:51:47;;;;;;;4.90;3.45;;;23.70;94.70;;;;;;5132135;27;20027;-82
2023/06/11 08:54:13;;;;;;;3.85;3.30;;;23.70;95.00;;;;;;5122999;27;20068;-83
2023/06/11 08:56:39;;;;;;;4.00;3.38;;;23.80;94.20;;;;;;5126714;27;20031;-82
2023/06/11 08:59:06;;;;;;;4.97;3.55;;;23.80;94.00;;;;;;5130503;27;20115;-83
2023/06/11 09:01:32;;;;;;;4.82;3.60;;;23.80;94.20;;;;;;5119453;27;20028;-82
2023/06/11 09:03:58;;;;;;;4.88;3.80;;;23.90;94.20;;;;;;5134531;27;20043;-83
2023/06/11 09:06:24;;;;;;;4.25;3.63;;;23.90;93.90;;;;;;5123287;27;20468;-82
2023/06/11 09:09:01;;;;;;;4.05;3.20;;;23.90;93.40;;;;;;5125911;27;20061;-83
2023/06/11 09:11:38;;;;;;;3.80;3.40;;;23.90;93.20;;;;;;5116443;27;20031;-83
2023/06/11 09:14:04;;;;;;;4.70;3.33;;;24.00;93.10;;;;;;5105317;27;20092;-82
2023/06/11 09:16:38;;;;;;;5.18;3.83;;;24.10;92.40;;;;;;5128808;27;20027;-83
2023/06/11 09:19:04;;;;;;;3.72;3.20;;;24.10;92.00;;;;;;5127989;27;20034;-82
2023/06/11 09:21:29;;;;;;;4.50;3.67;;;24.10;91.90;;;;;;5131576;27;20031;-83
2023/06/11 09:23:55;;;;;;;3.90;3.50;;;24.10;91.80;;;;;;5119967;27;20019;-83
2023/06/11 09:26:21;;;;;;;3.70;3.20;;;24.10;92.10;;;;;;5130217;27;20102;-83
2023/06/11 09:28:46;;;;;;;5.95;3.58;;;24.20;92.50;;;;;;5115394;28;20028;-83
2023/06/11 09:31:12;;;;;;;4.07;3.20;;;24.30;92.00;;;;;;5125253;27;20015;-83
2023/06/11 09:33:38;;;;;;;5.45;3.60;;;24.30;91.80;;;;;;5118810;27;20093;-83
2023/06/11 09:36:04;;;;;;;5.20;3.38;;;24.40;91.70;;;;;;5119914;27;20019;-83
2023/06/11 09:38:33;;;;;;;5.55;3.10;;;24.40;91.80;;;;;;5132697;27;20087;-82
2023/06/11 09:40:59;;;;;;;4.72;3.22;;;24.50;91.20;;;;;;5115472;27;20055;-83
2023/06/11 09:43:25;;;;;;;7.03;3.47;;;24.50;90.80;;;;;;5116190;28;20102;-79
2023/06/11 09:45:55;;;;;;;5.50;3.75;;;24.60;90.60;;;;;;5121568;27;20058;-83
2023/06/11 09:48:21;;;;;;;4.72;3.40;;;24.60;90.10;;;;;;5129718;27;20028;-83
2023/06/11 09:50:51;;;;;;;3.70;3.30;;;24.70;90.30;;;;;;5124560;27;20107;-83
2023/06/11 09:53:22;;;;;;;4.80;3.35;;;24.70;90.20;;;;;;5121390;27;20032;-83
2023/06/11 09:55:50;;;;;;;4.25;3.13;;;24.70;89.50;;;;;;5117662;27;20024;-83
2023/06/11 09:58:18;;;;;;;3.80;3.38;;;24.80;89.50;;;;;;5129217;27;20097;-83
2023/06/11 10:00:47;;;;;;;4.80;2.90;;;24.90;86.50;;;;;;5123271;27;20075;-83
2023/06/11 10:03:13;;;;;;;4.05;3.10;;;24.90;86.10;;;;;;5136132;27;20479;-83
2023/06/11 10:05:38;;;;;;;4.45;3.20;;;24.90;87.00;;;;;;5118669;27;20027;-83
2023/06/11 10:08:23;;;;;;;4.30;3.38;;;25.00;86.00;;;;;;5130663;27;20030;-84
2023/06/11 10:10:54;;;;;;;6.82;3.47;;;25.10;85.60;;;;;;5102430;27;20034;-82
2023/06/11 10:13:29;;;;;;;4.90;2.97;;;25.20;84.70;;;;;;5119939;27;20030;-83
2023/06/11 10:16:01;;;;;;;6.25;3.47;;;25.20;84.70;;;;;;5122796;27;20035;-83
2023/06/11 10:18:27;;;;;;;4.90;2.95;;;25.20;84.00;;;;;;5122890;27;20047;-83
2023/06/11 10:21:03;;;;;;;5.40;3.00;;;25.20;84.50;;;;;;5124765;27;20018;-83
2023/06/11 10:23:40;;;;;;;3.97;3.00;;;25.30;83.20;;;;;;5130815;27;20036;-83
2023/06/11 10:26:06;;;;;;;3.67;2.70;;;25.40;82.50;;;;;;5100096;27;20011;-83
2023/06/11 10:28:48;;;;;;;5.15;3.00;;;25.40;81.20;;;;;;5113682;28;20030;-83
2023/06/11 10:31:41;;;;;;;3.50;2.42;;;25.40;81.30;;;;;;5129385;27;20023;-83
2023/06/11 10:34:07;;;;;;;4.72;3.17;;;25.40;79.50;;;;;;5096792;28;20072;-83
2023/06/11 10:36:35;;;;;;;3.10;2.75;;;25.50;78.40;;;;;;5122290;27;20023;-83
2023/06/11 10:39:20;;;;;;;3.30;2.78;;;25.60;75.90;;;;;;5121179;27;20020;-83
2023/06/11 10:41:46;;;;;;;4.70;2.50;;;25.70;75.80;;;;;;5129461;27;20475;-83
2023/06/11 10:44:14;;;;;;;5.40;2.78;;;25.80;76.10;;;;;;5120889;27;20029;-83
2023/06/11 10:46:46;;;;;;;3.13;2.70;;;25.80;76.00;;;;;;5125095;27;20081;-83
2023/06/11 10:49:15;;;;;;;3.38;2.40;;;25.80;76.00;;;;;;5113856;28;20346;-83
2023/06/11 10:51:41;;;;;;;3.47;2.55;;;25.80;75.40;;;;;;5132331;27;20058;-83
2023/06/11 10:54:07;;;;;;;6.15;2.78;;;25.90;77.00;;;;;;5118947;27;20027;-83
2023/06/11 10:56:37;;;;;;;2.55;2.35;;;26.00;75.30;;;;;;5133513;27;20026;-83
2023/06/11 10:59:07;;;;;;;5.53;2.70;;;26.00;71.70;;;;;;5123860;27;20019;-83
2023/06/11 11:01:33;;;;;;;3.10;2.77;;;26.10;71.40;;;;;;5125750;27;20027;-83
2023/06/11 11:04:02;;;;;;;3.97;2.33;;;26.10;71.10;;;;;;5132373;27;20020;-83
2023/06/11 11:06:28;;;;;;;3.83;2.75;;;26.20;69.40;;;;;;5122554;27;20046;-79
2023/06/11 11:08:57;;;;;;;2.90;2.30;;;26.30;69.20;;;;;;5125202;27;20104;-83
2023/06/11 11:11:24;;;;;;;4.95;2.90;;;26.20;68.00;;;;;;5113627;28;20052;-82
2023/06/11 11:13:50;;;;;;;3.00;2.70;;;26.20;68.90;;;;;;5132309;27;20048;-83
2023/06/11 11:16:19;;;;;;;4.55;2.72;;;26.30;70.00;;;;;;5123183;27;20093;-83
2023/06/11 11:18:49;;;;;;;4.30;2.80;;;26.40;69.20;;;;;;5126774;27;20123;-83
2023/06/11 11:21:15;;;;;;;3.28;2.53;;;26.50;68.40;;;;;;5117341;28;20023;-83
2023/06/11 11:23:42;;;;;;;4.95;2.80;;;26.50;68.00;;;;;;5132519;27;20019;-83
2023/06/11 11:26:07;;;;;;;6.80;2.70;;;26.50;67.70;;;;;;5122004;27;20068;-83
2023/06/11 11:28:34;;;;;;;3.10;2.40;;;26.50;68.80;;;;;;5137713;27;20409;-82
2023/06/11 11:31:00;;;;;;;2.70;2.28;;;26.50;68.20;;;;;;5126150;27;20031;-82
2023/06/11 11:33:27;;;;;;;6.53;2.80;;;26.60;68.40;;;;;;5121428;27;20022;-83
2023/06/11 11:35:53;;;;;;;4.00;2.40;;;26.80;66.70;;;;;;5119426;27;20015;-83
2023/06/11 11:38:20;;;;;;;3.15;2.65;;;26.90;67.10;;;;;;5132186;27;20065;-83
2023/06/11 11:40:52;;;;;;;4.10;3.03;;;26.90;65.30;;;;;;5125672;27;20070;-83
2023/06/11 11:43:18;;;;;;;4.20;2.92;;;27.00;63.20;;;;;;5135880;27;20029;-84
2023/06/11 11:45:48;;;;;;;8.45;2.47;;;27.00;64.50;;;;;;5117327;27;20023;-83
2023/06/11 11:48:17;;;;;;;3.92;2.40;;;27.00;63.10;;;;;;5123945;27;20038;-83
2023/06/11 11:50:45;;;;;;;4.78;2.30;;;27.10;62.10;;;;;;5126330;27;20019;-82
2023/06/11 11:53:15;;;;;;;3.50;2.13;;;27.20;61.70;;;;;;5116395;27;20031;-83
2023/06/11 11:55:44;;;;;;;4.88;2.58;;;27.30;61.00;;;;;;5130483;27;20478;-83
2023/06/11 11:58:12;;;;;;;6.22;2.67;;;27.30;59.00;;;;;;5118159;27;20030;-83
2023/06/11 12:00:58;;;;;;;4.03;2.42;;;27.40;60.60;;;;;;5123505;27;20353;-82
2023/06/11 12:03:24;;;;;;;4.40;2.30;;;27.40;60.50;;;;;;5130054;28;20359;-83
2023/06/11 12:06:00;;;;;;;3.13;2.38;;;27.40;59.30;;;;;;5117373;28;20452;-82
2023/06/11 12:08:28;;;;;;;3.22;2.60;;;27.50;57.10;;;;;;5126218;28;20043;-82
2023/06/11 12:10:54;;;;;;;4.82;2.20;;;27.50;57.50;;;;;;5123470;28;20019;-83
2023/06/11 12:13:19;;;;;;;4.28;2.30;;;27.50;56.50;;;;;;5117552;28;20034;-83
2023/06/11 12:15:45;;;;;;;3.05;2.30;;;27.60;57.60;;;;;;5130630;28;20359;-83
2023/06/11 12:18:10;;;;;;;5.32;2.47;;;27.60;57.60;;;;;;5119087;28;20023;-83
2023/06/11 12:20:36;;;;;;;5.07;2.30;;;27.70;57.10;;;;;;5123563;28;20053;-83
2023/06/11 12:23:03;;;;;;;6.28;2.80;;;27.70;57.00;;;;;;5127417;27;20414;-83
2023/06/11 12:25:30;;;;;;;5.22;2.78;;;27.70;56.30;;;;;;5122640;27;20449;-83
2023/06/11 12:27:56;;;;;;;3.60;2.30;;;27.70;56.80;;;;;;5126936;27;20031;-82
2023/06/11 12:30:22;;;;;;;3.28;2.40;;;27.80;56.10;;;;;;5130579;27;20034;-82
2023/06/11 12:32:48;;;;;;;4.00;2.50;;;27.80;57.30;;;;;;5126574;27;20513;-82
2023/06/11 12:35:13;;;;;;;4.68;2.60;;;27.90;57.30;;;;;;5133506;27;20023;-82
2023/06/11 12:37:40;;;;;;;4.57;2.60;;;28.00;56.50;;;;;;5119542;27;20027;-83
2023/06/11 12:40:06;;;;;;;3.65;2.97;;;28.10;55.40;;;;;;5114548;27;20026;-83
2023/06/11 12:42:33;;;;;;;5.35;3.00;;;28.20;55.60;;;;;;5128005;27;20071;-82
2023/06/11 12:45:03;;;;;;;3.60;2.35;;;28.40;55.00;;;;;;5129322;27;20024;-83
2023/06/11 12:47:28;;;;;;;3.35;2.45;;;28.50;53.60;;;;;;5120333;27;20360;-82